Daytona Beach International Airport Daytona Beach US
ICAO: KDAB
IATA: DAB
Category: Medium
Scheduled Services: Yes

Elevation: 34 ft
TransAlt. 18000 ft.

Airport Communications:
APP:118.85
ATIS:120.05
CLNC DEL:119.3
DEP:123.9
GND:121.9
TWR:120.7
UNICOM:122.95

KDAB Zoom In..

Runways:

(A) RW 07L length 10500 ft width 150 ft
ILS 109.70 / hdg 70

(B) RW 07R length 3195 ft width 100 ft
---- / hdg 70

(C) RW 16 length 6001 ft width 150 ft
---- / hdg 162

(D) RW 25L length 3195 ft width 100 ft
---- / hdg 250

(E) RW 25R length 10500 ft width 150 ft
ILS 109.70 / hdg 250

(F) RW 34 length 6001 ft width 150 ft
---- / hdg 342

Location; KDAB
Day. 20 / Time. 19.57 Zulu
* Altimeter: 29.97
* Temperature: 26° c. 78.8°f.
* Wind from: 240° Speed 06 kn.
Dewpoint: 26° c.
Visibility: 10 Statute Miles.
Clouds: Few 700 ft.
Clouds: Few 3700 ft.
Clouds: Scattered 9000 ft.
Clouds: Overcast 15000 ft.
Conditions: Light Rain.

KDAB 201957Z 24006KT 10SM -RA FEW007 FEW037 SCT090 OVC150 26/26 A2997 RMK AO2 P0000 T02610261


Wind From 240°
Speed 06 kn.

 
 
jpsmedia.com for Web Design worldairports.se 2018   terms of use